Time;durP1;ratioP1;P1;durP2;ratioP2;P2;SDS_P1;SDS_P2;PMS_P1;PMS_P2;Temp;Humidity;BMP_temperature;BMP_pressure;BME280_temperature;BME280_humidity;BME280_pressure;Samples;Min_cycle;Max_cycle;Signal;HPM_P1;HPM_P2
2021/03/10 00:02:05;;;;;;;19.40;8.70;;;-1.10;99.90;;;;;;5013641;28;20481;-72
2021/03/10 00:04:31;;;;;;;17.25;8.02;;;-1.20;99.90;;;;;;4999885;28;20115;-74
2021/03/10 00:06:57;;;;;;;16.30;8.45;;;-1.20;99.90;;;;;;5016994;28;20037;-72
2021/03/10 00:09:23;;;;;;;18.30;8.00;;;-1.30;99.90;;;;;;5000295;28;20040;-72
2021/03/10 00:11:49;;;;;;;16.00;8.35;;;-1.30;99.90;;;;;;4998025;28;20095;-73
2021/03/10 00:14:15;;;;;;;17.83;7.68;;;-1.40;99.90;;;;;;4997815;28;20036;-72
2021/03/10 00:16:40;;;;;;;16.42;7.90;;;-1.40;99.90;;;;;;4997097;28;20547;-72
2021/03/10 00:19:06;;;;;;;19.13;7.68;;;-1.40;99.90;;;;;;5014207;28;20135;-73
2021/03/10 00:21:32;;;;;;;21.17;8.68;;;-1.40;99.90;;;;;;5015805;28;20037;-73
2021/03/10 00:23:57;;;;;;;20.05;8.50;;;-1.50;99.90;;;;;;5015599;28;20034;-73
2021/03/10 00:26:23;;;;;;;14.80;7.65;;;-1.40;99.90;;;;;;5015656;28;20103;-73
2021/03/10 00:28:49;;;;;;;19.95;7.82;;;-1.50;99.90;;;;;;5015441;28;20112;-73
2021/03/10 00:31:14;;;;;;;18.33;8.60;;;-1.40;99.90;;;;;;5014186;28;20501;-73
2021/03/10 00:33:40;;;;;;;19.00;7.70;;;-1.40;99.90;;;;;;5009423;28;20037;-73
2021/03/10 00:36:06;;;;;;;15.82;7.13;;;-1.40;99.90;;;;;;5015311;28;20136;-72
2021/03/10 00:38:32;;;;;;;17.38;7.55;;;-1.40;99.90;;;;;;5011409;28;20065;-72
2021/03/10 00:40:58;;;;;;;13.60;6.95;;;-1.40;99.90;;;;;;4998280;28;20108;-73
2021/03/10 00:43:23;;;;;;;14.70;6.43;;;-1.40;99.90;;;;;;5016697;28;20453;-73
2021/03/10 00:45:49;;;;;;;15.60;7.10;;;-1.40;99.90;;;;;;5015674;28;20034;-73
2021/03/10 00:48:14;;;;;;;18.05;7.68;;;-1.40;99.90;;;;;;4999371;28;20073;-76
2021/03/10 00:50:40;;;;;;;16.50;6.80;;;-1.40;99.90;;;;;;5011361;28;20029;-76
2021/03/10 00:53:06;;;;;;;17.00;6.78;;;-1.40;99.90;;;;;;5016290;28;20079;-76
2021/03/10 00:55:32;;;;;;;13.88;6.47;;;-1.40;99.90;;;;;;5012954;28;20261;-76
2021/03/10 00:57:57;;;;;;;18.08;8.20;;;-1.40;99.90;;;;;;4991054;28;20104;-76
2021/03/10 01:00:23;;;;;;;14.52;6.82;;;-1.40;99.90;;;;;;5015688;28;20040;-76
2021/03/10 01:02:49;;;;;;;18.10;7.25;;;-1.40;99.90;;;;;;4998630;28;20469;-76
2021/03/10 01:05:15;;;;;;;15.35;6.72;;;-1.40;99.90;;;;;;5016382;28;20041;-76
2021/03/10 01:07:40;;;;;;;18.30;7.47;;;-1.40;99.90;;;;;;4995049;28;20076;-76
2021/03/10 01:10:08;;;;;;;16.42;7.03;;;-1.50;99.90;;;;;;4992028;28;20034;-76
2021/03/10 01:12:35;;;;;;;14.52;7.40;;;-1.50;99.90;;;;;;4994293;28;20637;-76
2021/03/10 01:15:01;;;;;;;15.68;7.40;;;-1.50;99.90;;;;;;4995982;28;20482;-76
2021/03/10 01:17:26;;;;;;;16.95;7.22;;;-1.50;99.90;;;;;;5017542;28;20044;-76
2021/03/10 01:19:52;;;;;;;14.30;6.45;;;-1.50;99.90;;;;;;5018012;28;20048;-76
2021/03/10 01:22:19;;;;;;;14.30;6.57;;;-1.50;99.90;;;;;;5018426;28;20033;-76
2021/03/10 01:24:45;;;;;;;13.77;6.07;;;-1.50;99.90;;;;;;5001560;28;20754;-76
2021/03/10 01:27:16;;;;;;;15.38;6.78;;;-1.60;99.90;;;;;;5001590;28;20067;-76
2021/03/10 01:29:46;;;;;;;13.82;5.88;;;-1.60;99.90;;;;;;5017656;28;20048;-76
2021/03/10 01:32:11;;;;;;;14.57;7.05;;;-1.60;99.90;;;;;;5019564;28;20405;-76
2021/03/10 01:34:37;;;;;;;14.43;6.90;;;-1.60;99.90;;;;;;5018844;28;20117;-76
2021/03/10 01:37:03;;;;;;;14.50;6.88;;;-1.60;99.90;;;;;;5018008;28;20033;-76
2021/03/10 01:39:28;;;;;;;15.57;7.55;;;-1.60;99.90;;;;;;5018554;28;20111;-77
2021/03/10 01:41:57;;;;;;;19.98;7.88;;;-1.60;99.90;;;;;;5017102;28;20803;-77
2021/03/10 01:44:23;;;;;;;20.05;7.93;;;-1.60;99.90;;;;;;5002440;28;20038;-76
2021/03/10 01:46:49;;;;;;;17.42;7.93;;;-1.60;99.90;;;;;;5003085;28;20091;-76
2021/03/10 01:49:14;;;;;;;18.00;8.30;;;-1.60;99.90;;;;;;5020315;28;20044;-78
2021/03/10 01:51:40;;;;;;;14.07;6.97;;;-1.70;99.90;;;;;;5010497;28;20030;-76
2021/03/10 01:54:06;;;;;;;14.45;6.57;;;-1.70;99.90;;;;;;5010303;28;20635;-78
2021/03/10 01:56:31;;;;;;;17.35;7.57;;;-1.70;99.90;;;;;;5016829;28;20066;-76
2021/03/10 01:58:57;;;;;;;16.58;6.80;;;-1.80;99.90;;;;;;5018071;28;20780;-76
2021/03/10 02:01:23;;;;;;;16.98;7.45;;;-1.90;99.90;;;;;;4984430;28;20041;-76
2021/03/10 02:03:49;;;;;;;16.42;7.43;;;-1.90;99.90;;;;;;4993782;28;20107;-76
2021/03/10 02:06:33;;;;;;;18.67;7.35;;;-1.90;99.90;;;;;;4991546;28;20055;-76
2021/03/10 02:09:06;;;;;;;19.42;7.65;;;-2.00;99.90;;;;;;4997022;28;20053;-76
2021/03/10 02:11:56;;;;;;;14.50;6.47;;;-2.00;99.90;;;;;;5019186;28;20104;-76
2021/03/10 02:14:58;;;;;;;15.05;7.13;;;-2.00;99.90;;;;;;5017142;28;20029;-76
2021/03/10 02:17:29;;;;;;;14.02;6.70;;;-2.00;99.90;;;;;;5017042;28;20775;-76
2021/03/10 02:20:03;;;;;;;13.98;6.38;;;-2.00;99.90;;;;;;4994130;28;20132;-76
2021/03/10 02:23:10;;;;;;;15.60;6.93;;;-2.00;99.90;;;;;;5030142;28;20025;-76
2021/03/10 02:25:53;;;;;;;16.55;6.78;;;-1.90;99.90;;;;;;5016078;28;20044;-75
2021/03/10 02:28:19;;;;;;;17.98;6.88;;;-1.90;99.90;;;;;;5017541;28;20037;-75
2021/03/10 02:30:49;;;;;;;17.23;7.55;;;-1.90;99.90;;;;;;5009994;28;20041;-76
2021/03/10 02:33:19;;;;;;;16.08;6.75;;;-1.90;99.90;;;;;;4999000;28;20041;-75
2021/03/10 02:35:56;;;;;;;19.60;7.85;;;-1.80;99.90;;;;;;5017541;28;20059;-75
2021/03/10 02:38:24;;;;;;;16.95;7.75;;;-1.80;99.90;;;;;;5000532;28;20041;-74
2021/03/10 02:40:52;;;;;;;18.80;7.45;;;-1.80;99.90;;;;;;5018107;28;20040;-75
2021/03/10 02:43:19;;;;;;;16.90;7.60;;;-1.80;99.90;;;;;;5018227;28;20041;-75
2021/03/10 02:45:45;;;;;;;14.23;7.03;;;-1.80;99.90;;;;;;5016853;28;20025;-75
2021/03/10 02:48:12;;;;;;;12.05;6.07;;;-1.80;99.90;;;;;;5016323;28;20144;-75
2021/03/10 02:50:39;;;;;;;15.38;6.85;;;-1.80;99.90;;;;;;5017577;28;20033;-75
2021/03/10 02:53:08;;;;;;;23.95;8.27;;;-1.80;99.90;;;;;;5006764;28;20034;-75
2021/03/10 02:55:34;;;;;;;16.48;7.97;;;-1.90;99.90;;;;;;5015913;28;20136;-75
2021/03/10 02:58:00;;;;;;;20.15;7.90;;;-2.00;99.90;;;;;;5012648;28;20041;-75
2021/03/10 03:00:28;;;;;;;14.80;7.00;;;-2.00;99.90;;;;;;5016349;28;20072;-75
2021/03/10 03:02:54;;;;;;;15.10;7.28;;;-2.00;99.90;;;;;;5014297;28;20043;-75
2021/03/10 03:05:19;;;;;;;15.18;6.82;;;-2.10;99.90;;;;;;5017127;28;20101;-75
2021/03/10 03:07:46;;;;;;;15.35;7.22;;;-2.20;99.90;;;;;;5015819;28;20481;-75
2021/03/10 03:10:21;;;;;;;12.75;6.32;;;-2.30;99.90;;;;;;5011941;28;20075;-75
2021/03/10 03:12:48;;;;;;;17.90;7.40;;;-2.30;99.90;;;;;;4991862;28;20104;-75
2021/03/10 03:15:18;;;;;;;14.20;7.47;;;-2.40;99.90;;;;;;5017060;28;20038;-75
2021/03/10 03:17:45;;;;;;;17.15;7.13;;;-2.40;99.90;;;;;;5017418;28;20033;-75
2021/03/10 03:20:13;;;;;;;17.25;7.05;;;-2.40;99.90;;;;;;5016823;28;20025;-75
2021/03/10 03:22:44;;;;;;;16.60;7.13;;;-2.40;99.90;;;;;;5004600;28;20565;-75
2021/03/10 03:25:28;;;;;;;14.45;6.95;;;-2.40;99.90;;;;;;5014977;28;20033;-75
2021/03/10 03:27:57;;;;;;;13.43;6.90;;;-2.30;99.90;;;;;;5006032;28;20030;-75
2021/03/10 03:30:25;;;;;;;16.20;6.40;;;-2.30;99.90;;;;;;5026451;28;20128;-75
2021/03/10 03:32:53;;;;;;;17.40;6.97;;;-2.30;99.90;;;;;;5017577;28;20029;-76
2021/03/10 03:35:20;;;;;;;19.30;7.28;;;-2.30;99.90;;;;;;4999225;28;20060;-75
2021/03/10 03:37:48;;;;;;;18.13;7.68;;;-2.30;99.90;;;;;;5016813;28;20037;-75
2021/03/10 03:40:15;;;;;;;16.92;7.45;;;-2.30;99.90;;;;;;5016414;28;20044;-75
2021/03/10 03:42:41;;;;;;;17.55;7.25;;;-2.30;99.90;;;;;;5015476;28;20045;-76
2021/03/10 03:45:08;;;;;;;18.45;7.30;;;-2.30;99.90;;;;;;5015051;28;20041;-75
2021/03/10 03:47:35;;;;;;;20.55;7.32;;;-2.30;99.90;;;;;;4999665;28;20069;-75
2021/03/10 03:50:01;;;;;;;20.50;7.20;;;-2.20;99.90;;;;;;5018314;28;20026;-76
2021/03/10 03:52:26;;;;;;;21.35;7.43;;;-2.20;99.90;;;;;;5016735;28;20026;-76
2021/03/10 03:54:52;;;;;;;17.00;7.65;;;-2.20;99.90;;;;;;5015231;28;20037;-76
2021/03/10 03:57:18;;;;;;;17.02;7.70;;;-2.20;99.90;;;;;;5019477;28;20044;-76
2021/03/10 03:59:43;;;;;;;17.63;7.20;;;-2.20;99.90;;;;;;5013876;28;20039;-76
2021/03/10 04:02:09;;;;;;;18.60;8.00;;;-2.10;99.90;;;;;;5018146;28;20033;-76
2021/03/10 04:04:35;;;;;;;18.63;7.47;;;-2.10;99.90;;;;;;5016596;28;20041;-75
2021/03/10 04:07:01;;;;;;;19.63;7.68;;;-2.20;99.90;;;;;;5016658;28;20036;-75
2021/03/10 04:09:27;;;;;;;17.92;7.97;;;-2.20;99.90;;;;;;4999034;28;20072;-75
2021/03/10 04:11:53;;;;;;;15.15;7.30;;;-2.30;99.90;;;;;;5016956;28;20029;-75
2021/03/10 04:14:20;;;;;;;17.40;7.35;;;-2.40;99.90;;;;;;4993353;28;20144;-76
2021/03/10 04:16:45;;;;;;;14.25;7.35;;;-2.40;99.90;;;;;;5016049;28;20124;-75
2021/03/10 04:19:11;;;;;;;19.92;7.88;;;-2.50;99.90;;;;;;5013975;28;20052;-76
2021/03/10 04:21:38;;;;;;;16.58;7.03;;;-2.60;99.90;;;;;;5016223;28;20524;-76
2021/03/10 04:24:05;;;;;;;18.60;8.25;;;-2.60;99.90;;;;;;5015386;28;20677;-75
2021/03/10 04:26:31;;;;;;;13.93;6.95;;;-2.60;99.90;;;;;;5016621;28;20033;-76
2021/03/10 04:28:56;;;;;;;19.58;7.65;;;-2.60;99.90;;;;;;5017698;28;20130;-76
2021/03/10 04:31:22;;;;;;;16.73;7.93;;;-2.70;99.90;;;;;;4999365;28;20025;-76
2021/03/10 04:33:48;;;;;;;16.60;7.65;;;-2.70;99.90;;;;;;5017252;28;20187;-76
2021/03/10 04:36:14;;;;;;;18.77;7.55;;;-2.80;99.90;;;;;;5014698;28;20041;-76
2021/03/10 04:38:39;;;;;;;14.88;7.05;;;-2.70;99.90;;;;;;5023491;28;20033;-76
2021/03/10 04:41:05;;;;;;;18.02;7.82;;;-2.80;99.90;;;;;;5009198;28;20041;-76
2021/03/10 04:43:31;;;;;;;18.73;7.97;;;-2.80;99.90;;;;;;5016566;28;20087;-76
2021/03/10 04:45:56;;;;;;;17.17;7.63;;;-2.80;99.90;;;;;;4999129;28;20033;-76
2021/03/10 04:48:22;;;;;;;19.40;8.38;;;-2.80;99.90;;;;;;5016777;28;20100;-76
2021/03/10 04:50:49;;;;;;;19.95;9.10;;;-2.80;99.90;;;;;;5006198;28;20030;-76
2021/03/10 04:53:15;;;;;;;15.90;7.65;;;-2.70;99.90;;;;;;5003056;28;20037;-77
2021/03/10 04:55:41;;;;;;;17.63;8.23;;;-2.70;99.90;;;;;;5003345;28;20037;-76
2021/03/10 04:58:06;;;;;;;23.17;8.27;;;-2.70;99.90;;;;;;5005669;28;20068;-78
2021/03/10 05:00:33;;;;;;;16.05;7.53;;;-2.60;99.90;;;;;;5003254;28;20041;-78
2021/03/10 05:02:58;;;;;;;18.90;7.85;;;-2.60;99.90;;;;;;5016509;28;20044;-76
2021/03/10 05:05:24;;;;;;;20.02;8.50;;;-2.60;99.90;;;;;;4998597;28;20038;-76
2021/03/10 05:07:50;;;;;;;22.45;8.13;;;-2.60;99.90;;;;;;5005036;28;20029;-76
2021/03/10 05:10:16;;;;;;;19.10;8.63;;;-2.60;99.90;;;;;;5020728;28;20537;-76
2021/03/10 05:12:42;;;;;;;17.38;8.13;;;-2.50;99.90;;;;;;5020811;28;20051;-75
2021/03/10 05:15:08;;;;;;;18.77;8.15;;;-2.50;99.90;;;;;;5019944;28;20971;-75
2021/03/10 05:17:35;;;;;;;16.27;7.65;;;-2.50;99.90;;;;;;5020440;28;20054;-75
2021/03/10 05:20:01;;;;;;;19.05;7.80;;;-2.40;99.90;;;;;;5011897;28;20037;-75
2021/03/10 05:22:27;;;;;;;17.60;7.32;;;-2.40;99.90;;;;;;5019424;28;20032;-76
2021/03/10 05:24:53;;;;;;;21.45;8.40;;;-2.40;99.90;;;;;;5004658;28;20219;-76
2021/03/10 05:27:19;;;;;;;15.95;7.35;;;-2.40;99.90;;;;;;5018623;28;20060;-76
2021/03/10 05:29:45;;;;;;;21.27;8.38;;;-2.40;99.90;;;;;;5018713;28;20033;-76
2021/03/10 05:32:12;;;;;;;22.52;8.60;;;-2.40;99.90;;;;;;5015126;28;20045;-77
2021/03/10 05:34:38;;;;;;;17.83;7.65;;;-2.40;99.90;;;;;;5000227;28;20547;-76
2021/03/10 05:37:04;;;;;;;16.52;8.05;;;-2.40;99.90;;;;;;5019197;28;20120;-76
2021/03/10 05:39:30;;;;;;;24.17;8.73;;;-2.40;99.90;;;;;;5020140;28;20033;-76
2021/03/10 05:41:57;;;;;;;17.83;7.95;;;-2.40;99.90;;;;;;5001629;28;20033;-76
2021/03/10 05:44:24;;;;;;;16.67;7.82;;;-2.40;99.90;;;;;;5000406;28;20038;-76
2021/03/10 05:46:50;;;;;;;13.40;7.35;;;-2.30;99.90;;;;;;5011085;28;20144;-76
2021/03/10 05:49:15;;;;;;;19.63;7.50;;;-2.30;99.90;;;;;;5018167;28;20033;-77
2021/03/10 05:51:41;;;;;;;18.17;8.13;;;-2.30;99.90;;;;;;5011774;28;20108;-75
2021/03/10 05:54:07;;;;;;;21.15;7.93;;;-2.30;99.90;;;;;;4997985;28;20588;-75
2021/03/10 05:56:33;;;;;;;17.98;8.32;;;-2.20;99.90;;;;;;5015388;28;20872;-75
2021/03/10 05:59:01;;;;;;;20.15;8.40;;;-2.10;99.90;;;;;;5016809;28;20565;-78
2021/03/10 06:01:27;;;;;;;23.15;8.63;;;-2.00;99.90;;;;;;5001169;28;20045;-75
2021/03/10 06:03:57;;;;;;;18.23;8.15;;;-2.00;99.90;;;;;;5018166;28;20044;-75
2021/03/10 06:06:24;;;;;;;16.48;7.50;;;-1.90;99.90;;;;;;4999478;28;20591;-75
2021/03/10 06:08:50;;;;;;;21.50;8.35;;;-1.90;99.90;;;;;;5016677;28;20033;-75
2021/03/10 06:11:25;;;;;;;20.70;8.68;;;-1.90;99.90;;;;;;5018651;28;20033;-75
2021/03/10 06:13:53;;;;;;;25.30;8.35;;;-1.80;99.90;;;;;;4997746;28;20037;-75
2021/03/10 06:16:23;;;;;;;20.25;8.35;;;-1.80;99.90;;;;;;4998936;28;20065;-73
2021/03/10 06:19:00;;;;;;;20.88;8.40;;;-1.80;99.90;;;;;;5011234;28;20033;-75
2021/03/10 06:21:25;;;;;;;19.23;8.25;;;-1.70;99.90;;;;;;5018604;28;20107;-75
2021/03/10 06:23:53;;;;;;;29.85;9.20;;;-1.70;99.90;;;;;;5012429;28;20153;-75
2021/03/10 06:26:30;;;;;;;20.85;8.95;;;-1.70;99.90;;;;;;5008922;28;20026;-75
2021/03/10 06:28:59;;;;;;;22.80;8.60;;;-1.60;99.90;;;;;;5011092;28;20034;-75
2021/03/10 06:31:34;;;;;;;18.23;8.70;;;-1.60;99.90;;;;;;5010125;28;20389;-75
2021/03/10 06:34:05;;;;;;;18.83;7.88;;;-1.50;99.90;;;;;;5000005;28;20091;-75
2021/03/10 06:36:36;;;;;;;17.85;8.60;;;-1.50;99.90;;;;;;4986603;28;20060;-75
2021/03/10 06:39:05;;;;;;;21.25;8.57;;;-1.40;99.90;;;;;;5006256;28;20373;-75
2021/03/10 06:41:33;;;;;;;20.05;8.55;;;-1.30;99.90;;;;;;5015655;28;20037;-76
2021/03/10 06:44:00;;;;;;;21.58;9.63;;;-1.30;99.90;;;;;;4999501;28;20040;-75
2021/03/10 06:46:26;;;;;;;24.52;8.88;;;-1.20;99.90;;;;;;4991892;28;20040;-76
2021/03/10 06:49:01;;;;;;;25.35;9.68;;;-1.00;99.90;;;;;;4998838;28;20033;-76
2021/03/10 06:51:28;;;;;;;29.83;9.18;;;-1.00;99.90;;;;;;5013487;28;20843;-77
2021/03/10 06:53:54;;;;;;;19.48;8.27;;;-1.00;99.90;;;;;;5005762;28;20030;-77
2021/03/10 06:56:24;;;;;;;20.25;8.25;;;-0.90;99.90;;;;;;5014200;28;20044;-77
2021/03/10 06:58:58;;;;;;;18.10;8.23;;;-0.70;99.90;;;;;;4979060;28;20039;-75
2021/03/10 07:01:48;;;;;;;24.42;8.57;;;-0.60;99.90;;;;;;5010070;28;20037;-75
2021/03/10 07:04:14;;;;;;;20.52;9.38;;;-0.50;99.90;;;;;;4998435;28;20130;-75
2021/03/10 07:06:40;;;;;;;23.38;9.38;;;-0.50;99.90;;;;;;5009055;28;20722;-75
2021/03/10 07:09:09;;;;;;;30.05;11.55;;;-0.50;99.90;;;;;;5007396;28;20237;-75
2021/03/10 07:11:37;;;;;;;23.65;9.20;;;-0.50;99.90;;;;;;4987854;28;20076;-76
2021/03/10 07:14:03;;;;;;;27.20;9.82;;;-0.40;99.90;;;;;;4993747;28;20060;-73
2021/03/10 07:16:32;;;;;;;23.55;9.60;;;-0.40;99.90;;;;;;5008265;28;20964;-76
2021/03/10 07:19:00;;;;;;;20.52;9.00;;;-0.30;99.90;;;;;;5012157;28;20022;-76
2021/03/10 07:21:33;;;;;;;20.42;9.05;;;-0.20;99.60;;;;;;5013887;28;20073;-76
2021/03/10 07:24:01;;;;;;;26.02;9.48;;;-0.20;99.70;;;;;;4999408;28;20037;-76
2021/03/10 07:26:27;;;;;;;22.88;10.05;;;-0.10;99.90;;;;;;5009629;28;20873;-75
2021/03/10 07:29:03;;;;;;;21.77;8.30;;;0.10;99.80;;;;;;5012520;28;20112;-76
2021/03/10 07:31:28;;;;;;;24.40;9.55;;;0.20;99.50;;;;;;5013178;28;20044;-76
2021/03/10 07:33:56;;;;;;;18.77;8.23;;;0.40;98.80;;;;;;5011276;28;20034;-76
2021/03/10 07:36:38;;;;;;;19.80;8.00;;;0.50;99.30;;;;;;5008217;28;20042;-76
2021/03/10 07:39:18;;;;;;;16.75;8.40;;;0.90;98.30;;;;;;5006627;28;20505;-76
2021/03/10 07:41:44;;;;;;;19.80;9.18;;;1.20;98.00;;;;;;5013486;28;20034;-76
2021/03/10 07:44:20;;;;;;;17.92;8.70;;;1.70;96.80;;;;;;5007143;28;20092;-76
2021/03/10 07:46:47;;;;;;;22.65;8.40;;;2.10;94.90;;;;;;4995787;28;20549;-75
2021/03/10 07:49:23;;;;;;;22.00;8.98;;;2.20;94.90;;;;;;5006533;28;20022;-75
2021/03/10 07:51:49;;;;;;;20.65;8.88;;;2.40;92.50;;;;;;5008656;28;20030;-73
2021/03/10 07:54:25;;;;;;;24.13;10.25;;;2.60;90.20;;;;;;5011980;28;20029;-75
2021/03/10 07:57:11;;;;;;;21.33;8.57;;;2.60;91.30;;;;;;5004895;28;20048;-74
2021/03/10 07:59:56;;;;;;;18.98;9.38;;;2.60;89.70;;;;;;5012194;28;20140;-74
2021/03/10 08:02:23;;;;;;;22.05;8.80;;;3.00;90.00;;;;;;5011813;28;20029;-75
2021/03/10 08:05:02;;;;;;;19.20;8.05;;;3.50;89.20;;;;;;5012871;28;20044;-74
2021/03/10 08:07:30;;;;;;;23.02;8.73;;;3.50;83.10;;;;;;5008838;28;20124;-74
2021/03/10 08:09:57;;;;;;;21.20;8.07;;;3.60;83.30;;;;;;5014539;28;20064;-74
2021/03/10 08:12:40;;;;;;;19.73;7.80;;;3.70;81.20;;;;;;4993971;28;20041;-74
2021/03/10 08:15:18;;;;;;;21.33;7.78;;;4.10;77.70;;;;;;5011454;28;20228;-73
2021/03/10 08:17:45;;;;;;;23.08;8.45;;;4.40;78.60;;;;;;5014921;28;20095;-73
2021/03/10 08:20:11;;;;;;;24.98;9.07;;;4.20;74.50;;;;;;5015190;28;20047;-73
2021/03/10 08:22:37;;;;;;;18.73;8.50;;;4.30;77.90;;;;;;5016226;28;20072;-73
2021/03/10 08:25:06;;;;;;;24.50;8.80;;;4.70;74.00;;;;;;5006404;28;20251;-73
2021/03/10 08:27:37;;;;;;;19.13;8.25;;;4.80;72.10;;;;;;5013314;28;20557;-73
2021/03/10 08:30:06;;;;;;;19.73;9.07;;;5.00;71.80;;;;;;5017452;28;20030;-73
2021/03/10 08:32:33;;;;;;;16.90;7.97;;;5.10;70.40;;;;;;5017007;28;20029;-74
2021/03/10 08:35:14;;;;;;;86.97;35.97;;;5.00;67.80;;;;;;5016218;28;20083;-74
2021/03/10 08:37:41;;;;;;;23.05;9.27;;;4.90;67.90;;;;;;5015200;28;20784;-73
2021/03/10 08:40:10;;;;;;;19.50;9.60;;;5.20;70.00;;;;;;5016904;28;20034;-73
2021/03/10 08:42:36;;;;;;;21.20;8.02;;;5.20;67.10;;;;;;5011651;28;20040;-73
2021/03/10 08:45:04;;;;;;;17.10;7.70;;;5.40;65.80;;;;;;5016496;28;20033;-73
2021/03/10 08:47:31;;;;;;;16.92;7.60;;;5.40;63.00;;;;;;4994155;28;20108;-73
2021/03/10 08:50:00;;;;;;;14.95;7.57;;;5.50;63.20;;;;;;5018613;28;20144;-73
2021/03/10 08:52:28;;;;;;;16.98;7.97;;;5.70;62.60;;;;;;5007075;28;20029;-73
2021/03/10 08:55:03;;;;;;;15.25;7.53;;;5.70;63.60;;;;;;4998217;28;20029;-72
2021/03/10 08:57:33;;;;;;;19.52;8.00;;;6.00;61.00;;;;;;5014024;28;20045;-72
2021/03/10 09:00:21;;;;;;;17.67;8.02;;;6.00;58.50;;;;;;5017402;28;20025;-73
2021/03/10 09:02:51;;;;;;;12.75;6.78;;;5.90;58.90;;;;;;4995582;28;20071;-73
2021/03/10 09:05:28;;;;;;;13.07;6.63;;;6.00;57.00;;;;;;5010975;28;20033;-73
2021/03/10 09:07:57;;;;;;;15.40;7.82;;;6.10;58.00;;;;;;4997678;28;20402;-73
2021/03/10 09:10:24;;;;;;;15.23;7.50;;;6.10;57.40;;;;;;5018913;28;20092;-73
2021/03/10 09:12:56;;;;;;;15.13;6.93;;;6.30;57.40;;;;;;5018344;28;20080;-73
2021/03/10 09:15:28;;;;;;;11.57;6.80;;;6.40;55.10;;;;;;4997036;28;20033;-74
2021/03/10 09:18:05;;;;;;;12.27;6.45;;;6.50;55.00;;;;;;4997040;28;20025;-73
2021/03/10 09:20:42;;;;;;;22.60;9.18;;;6.50;55.20;;;;;;5001246;28;20650;-74
2021/03/10 09:23:12;;;;;;;19.30;7.95;;;6.60;55.30;;;;;;5017538;28;20053;-73
2021/03/10 09:25:41;;;;;;;14.13;7.15;;;6.90;54.60;;;;;;5000997;28;20044;-74
2021/03/10 09:28:16;;;;;;;14.90;7.30;;;7.10;54.80;;;;;;5017466;28;20029;-72
2021/03/10 09:30:58;;;;;;;14.90;6.65;;;7.30;55.50;;;;;;4983541;28;20061;-71
2021/03/10 09:33:28;;;;;;;16.90;7.72;;;7.60;53.20;;;;;;4997113;28;20057;-71
2021/03/10 09:36:01;;;;;;;17.80;7.20;;;7.80;53.10;;;;;;5000715;28;20057;-71
2021/03/10 09:38:30;;;;;;;12.50;7.00;;;8.20;54.50;;;;;;4998117;28;20144;-71
2021/03/10 09:41:03;;;;;;;19.92;7.75;;;8.40;54.10;;;;;;5014473;28;20402;-70
2021/03/10 09:43:34;;;;;;;18.42;8.15;;;8.60;51.70;;;;;;4995539;28;20040;-71
2021/03/10 09:46:06;;;;;;;17.38;7.45;;;8.50;49.90;;;;;;5000290;28;20033;-70
2021/03/10 09:48:36;;;;;;;16.13;8.55;;;8.40;50.60;;;;;;4999195;28;20021;-71
2021/03/10 09:51:13;;;;;;;16.77;7.20;;;8.30;50.50;;;;;;5000815;28;20061;-71
2021/03/10 09:53:44;;;;;;;18.40;8.05;;;8.20;48.70;;;;;;5000021;28;20030;-71
2021/03/10 09:56:15;;;;;;;16.38;7.18;;;7.90;50.40;;;;;;4998868;28;20146;-71
2021/03/10 09:59:00;;;;;;;17.13;7.40;;;8.00;50.50;;;;;;5010434;28;20029;-71
2021/03/10 10:01:46;;;;;;;14.07;6.43;;;7.90;50.40;;;;;;5012314;28;20040;-71
2021/03/10 10:04:18;;;;;;;12.57;7.28;;;7.90;49.00;;;;;;4998014;28;20037;-71
2021/03/10 10:06:55;;;;;;;16.13;6.93;;;7.80;49.40;;;;;;5016558;28;20135;-71
2021/03/10 10:09:27;;;;;;;19.40;7.15;;;7.90;49.00;;;;;;5000053;28;20126;-71
2021/03/10 10:11:53;;;;;;;15.50;7.03;;;7.90;49.60;;;;;;4998573;28;20652;-71
2021/03/10 10:14:20;;;;;;;24.38;6.47;;;8.10;48.80;;;;;;4999848;28;20029;-71
2021/03/10 10:16:46;;;;;;;15.70;5.88;;;8.30;48.30;;;;;;5010963;28;20057;-71
2021/03/10 10:19:17;;;;;;;14.52;5.93;;;8.50;46.90;;;;;;5016208;28;20823;-71
2021/03/10 10:21:47;;;;;;;12.35;5.45;;;8.20;47.90;;;;;;4999607;28;20113;-71
2021/03/10 10:24:16;;;;;;;11.00;5.68;;;8.00;47.10;;;;;;5016901;28;20044;-71
2021/03/10 10:26:43;;;;;;;10.27;5.78;;;8.20;46.30;;;;;;4998803;28;20970;-71
2021/03/10 10:29:14;;;;;;;12.40;5.20;;;8.30;47.10;;;;;;5001019;28;20144;-71
2021/03/10 10:31:45;;;;;;;10.88;5.25;;;8.40;45.40;;;;;;5001657;28;20044;-71
2021/03/10 10:34:11;;;;;;;11.25;4.72;;;8.20;45.00;;;;;;5001192;28;20029;-70
2021/03/10 10:36:39;;;;;;;11.40;5.10;;;8.00;46.30;;;;;;4998947;28;20760;-71
2021/03/10 10:39:05;;;;;;;10.80;4.80;;;8.10;45.00;;;;;;4999458;28;20036;-71
2021/03/10 10:41:31;;;;;;;10.60;5.38;;;8.20;45.60;;;;;;4998464;28;20034;-71
2021/03/10 10:43:57;;;;;;;12.38;5.40;;;8.30;44.20;;;;;;4983210;28;20051;-71
2021/03/10 10:46:23;;;;;;;8.85;5.40;;;8.60;45.50;;;;;;4997112;28;20040;-71
2021/03/10 10:48:52;;;;;;;12.13;5.55;;;8.80;45.20;;;;;;4998106;28;20025;-71
2021/03/10 10:51:29;;;;;;;10.55;5.78;;;8.90;45.20;;;;;;4993404;28;20511;-72
2021/03/10 10:54:12;;;;;;;10.02;5.93;;;9.00;44.50;;;;;;4984267;28;20033;-72
2021/03/10 10:56:39;;;;;;;17.58;6.20;;;8.70;44.40;;;;;;4995201;28;20040;-73
2021/03/10 10:59:21;;;;;;;10.05;5.43;;;8.70;45.90;;;;;;4997191;28;20040;-72
2021/03/10 11:01:47;;;;;;;10.20;5.78;;;8.90;46.90;;;;;;5015233;28;20111;-72
2021/03/10 11:04:13;;;;;;;12.95;5.63;;;8.70;45.70;;;;;;5015204;28;20745;-71
2021/03/10 11:06:39;;;;;;;11.82;5.75;;;8.70;45.30;;;;;;4980940;28;20033;-72
2021/03/10 11:09:05;;;;;;;9.88;5.28;;;8.90;45.70;;;;;;4975974;28;20065;-71
2021/03/10 11:11:32;;;;;;;12.63;5.93;;;8.90;45.30;;;;;;5014666;28;20654;-71
2021/03/10 11:13:58;;;;;;;13.98;5.63;;;9.20;45.10;;;;;;4982436;28;20644;-72
2021/03/10 11:16:36;;;;;;;10.65;6.30;;;9.30;45.40;;;;;;4982078;28;20045;-72
2021/03/10 11:19:07;;;;;;;10.90;6.47;;;9.20;45.20;;;;;;4997248;28;20056;-72
2021/03/10 11:21:32;;;;;;;15.70;7.55;;;9.50;44.90;;;;;;4996712;28;20132;-72
2021/03/10 11:23:58;;;;;;;14.52;7.50;;;9.60;44.50;;;;;;5015033;28;20072;-72
2021/03/10 11:26:24;;;;;;;15.38;8.43;;;10.00;45.20;;;;;;5014899;28;20106;-72
2021/03/10 11:28:50;;;;;;;15.68;7.55;;;9.70;44.40;;;;;;4996375;28;20039;-72
2021/03/10 11:31:18;;;;;;;16.20;8.05;;;9.70;44.60;;;;;;4998713;28;20099;-72
2021/03/10 11:33:46;;;;;;;16.85;7.90;;;9.60;44.70;;;;;;4994774;28;20116;-72
2021/03/10 11:36:12;;;;;;;15.13;8.50;;;9.70;44.60;;;;;;4997330;28;20037;-72
2021/03/10 11:38:46;;;;;;;13.77;7.85;;;9.80;44.60;;;;;;5013579;28;20405;-72
2021/03/10 11:41:11;;;;;;;16.95;8.88;;;9.70;44.60;;;;;;4992016;28;20037;-72
2021/03/10 11:43:37;;;;;;;16.92;8.23;;;9.60;44.00;;;;;;5013805;28;20679;-72
2021/03/10 11:46:03;;;;;;;19.05;8.85;;;9.30;45.20;;;;;;5015836;28;20041;-73
2021/03/10 11:48:28;;;;;;;16.40;9.02;;;9.40;45.70;;;;;;5004312;28;20053;-73
2021/03/10 11:50:54;;;;;;;15.48;9.27;;;9.60;45.30;;;;;;4998737;28;20668;-72
2021/03/10 11:53:20;;;;;;;17.55;9.02;;;10.20;45.30;;;;;;5007178;28;20030;-72
2021/03/10 11:55:48;;;;;;;19.40;8.48;;;10.50;43.90;;;;;;5008551;28;20033;-72
2021/03/10 11:58:14;;;;;;;19.70;9.52;;;10.60;43.00;;;;;;4997452;28;20065;-72
2021/03/10 12:00:41;;;;;;;17.58;9.07;;;10.20;44.70;;;;;;4997826;28;20067;-72
2021/03/10 12:03:13;;;;;;;18.77;9.38;;;10.00;44.30;;;;;;4997405;28;20038;-72
2021/03/10 12:05:46;;;;;;;21.88;10.13;;;9.90;44.40;;;;;;4985781;28;20680;-72
2021/03/10 12:08:12;;;;;;;16.42;8.70;;;9.90;44.60;;;;;;5014094;28;20021;-72
2021/03/10 12:10:40;;;;;;;16.08;9.50;;;10.20;44.00;;;;;;4995627;28;20512;-72
2021/03/10 12:13:10;;;;;;;17.48;9.27;;;10.10;44.80;;;;;;5015369;28;20078;-72
2021/03/10 12:15:37;;;;;;;20.08;9.23;;;10.30;44.90;;;;;;5012775;28;20401;-72
2021/03/10 12:18:04;;;;;;;18.23;8.73;;;10.30;45.50;;;;;;5015403;28;20112;-73
2021/03/10 12:20:29;;;;;;;17.67;9.85;;;10.60;44.70;;;;;;5016752;28;20063;-73
2021/03/10 12:22:55;;;;;;;20.30;9.85;;;11.00;43.20;;;;;;5015123;28;20036;-72
2021/03/10 12:25:21;;;;;;;18.08;9.95;;;11.40;43.30;;;;;;4995232;28;20314;-72
2021/03/10 12:27:47;;;;;;;16.80;9.52;;;11.60;42.90;;;;;;5012657;28;20039;-72
2021/03/10 12:30:14;;;;;;;19.33;9.82;;;12.20;42.60;;;;;;5012552;28;20764;-72
2021/03/10 12:32:40;;;;;;;19.25;10.18;;;12.10;42.60;;;;;;5009502;28;20025;-72
2021/03/10 12:35:06;;;;;;;17.40;10.48;;;12.30;42.50;;;;;;5015327;28;20037;-72
2021/03/10 12:37:32;;;;;;;15.93;10.48;;;12.50;42.80;;;;;;5016267;28;20044;-72
2021/03/10 12:39:59;;;;;;;22.65;10.50;;;12.50;42.00;;;;;;5009959;28;20034;-76
2021/03/10 12:42:25;;;;;;;19.48;10.27;;;12.60;42.20;;;;;;5015559;28;20029;-73
2021/03/10 12:44:50;;;;;;;16.30;10.38;;;12.40;42.40;;;;;;5014156;28;20037;-73
2021/03/10 12:47:17;;;;;;;19.05;10.88;;;12.30;43.10;;;;;;5010002;28;20128;-74
2021/03/10 12:49:43;;;;;;;17.42;10.65;;;13.00;42.80;;;;;;5015829;28;20607;-73